Latest Weather Observations for Cunderdin Airport

IDW60801

Issued at 4:33 pm WST Wednesday 2 September 2026 (issued every 10 minutes, with the page automatically refreshed every 10 minutes)

About weather observations | Map of weather stations | Latest weather observations for WA | Other Formats
Station Details ID: 010286 Name: CUNDERDIN AIRFIELD Lat: -31.62 Lon: 117.23 Height: 216.7 m
Data from the previous 72 hours. | See also: Recent months at Cunderdin Airport
Date/Time
WST
Temp
°C
App
Temp
°C
Dew
Point
°C
Rel
Hum
%
Delta-T
°C
Wind Press
QNH
hPa
Press
MSL
hPa
Rain since
9am
mm
Dir  Spd
km/h
Gust
km/h
Spd
kts
Gust
kts
02/04:30pm 15.9 12.5 9.1 64 3.5 W 17 22 9 12 1021.4 1021.3 0.0
02/04:00pm 16.9 14.7 9.3 61 4.0 W 11 17 6 9 1021.3 1021.2 0.0
02/03:30pm 16.5 13.7 8.7 60 4.0 WNW 13 20 7 11 1021.3 1021.2 0.0
02/03:00pm 16.5 12.4 8.5 59 4.1 NW 20 24 11 13 1021.5 1021.5 0.0
02/02:30pm 16.1 12.6 8.6 61 3.9 W 17 20 9 11 1021.6 1021.6 0.0
02/02:00pm 16.3 13.0 8.0 58 4.2 WSW 15 20 8 11 1021.9 1021.9 0.0
02/01:30pm 16.2 12.1 7.7 57 4.3 W 19 26 10 14 1022.1 1022.1 0.0
02/01:00pm 16.5 12.8 8.0 57 4.3 W 17 24 9 13 1022.5 1022.5 0.0
02/12:30pm 16.5 13.4 7.4 55 4.6 W 13 20 7 11 1022.9 1022.9 0.0
02/12:00pm 15.6 12.0 6.9 56 4.3 SW 15 24 8 13 1023.1 1023.1 0.0
02/11:30am 15.6 12.2 7.6 59 4.0 W 15 22 8 12 1023.4 1023.4 0.0
02/11:00am 15.2 12.4 7.0 58 4.1 W 11 20 6 11 1023.5 1023.5 0.0
02/10:30am 14.7 12.7 7.0 60 3.8 WSW 7 13 4 7 1023.8 1023.8 0.0
02/10:00am 13.6 11.3 7.4 66 3.1 WNW 9 13 5 7 1023.8 1023.8 0.0
02/09:30am 12.7 10.5 8.0 73 2.3 WNW 9 11 5 6 1024.2 1024.1 0.0
02/09:00am 11.6 9.7 7.7 77 1.9 WNW 7 9 4 5 1023.9 1023.9 0.2
02/08:30am 10.3 8.4 7.5 83 1.4 WSW 7 9 4 5 1023.8 1023.8 0.2
02/08:00am 9.4 8.0 7.2 86 1.0 WNW 4 9 2 5 1023.6 1023.6 0.2
02/07:30am 8.7 6.7 7.3 91 0.7 WNW 7 11 4 6 1023.4 1023.4 0.2
02/07:00am 8.2 6.2 7.0 92 0.6 WNW 7 11 4 6 1023.1 1023.1 0.2
02/06:30am 7.6 6.8 6.5 93 0.5 CALM 0 0 0 0 1022.9 1022.9 0.2
02/06:00am 7.4 6.6 6.3 93 0.5 CALM 0 0 0 0 1022.9 1022.9 0.2
02/05:30am 7.1 6.2 6.2 94 0.4 CALM 0 0 0 0 1022.7 1022.7 0.2
02/05:00am 6.8 5.8 5.6 92 0.5 CALM 0 4 0 2 1022.6 1022.6 0.2
02/04:30am 7.6 5.7 6.5 93 0.5 WNW 6 7 3 4 1022.5 1022.5 0.2
02/04:00am 7.4 5.4 6.2 92 0.5 WNW 6 9 3 5 1022.5 1022.5 0.2
02/03:30am 7.3 5.1 6.1 92 0.5 WNW 7 9 4 5 1022.6 1022.6 0.2
02/03:00am 7.1 4.5 5.9 92 0.5 WNW 9 11 5 6 1022.6 1022.6 0.2
02/02:30am 6.6 4.8 5.6 93 0.4 WNW 4 7 2 4 1022.7 1022.7 0.2
02/02:00am 6.5 4.2 5.6 94 0.4 WNW 7 9 4 5 1022.9 1022.9 0.2
02/01:30am 6.4 4.6 5.4 93 0.4 WNW 4 7 2 4 1022.8 1022.8 0.2
02/01:00am 6.6 4.3 5.7 94 0.4 WSW 7 13 4 7 1023.2 1023.2 0.2
02/12:30am 6.4 5.4 5.4 93 0.4 CALM 0 0 0 0 1023.1 1023.1 0.2
02/12:00am 6.6 4.3 5.6 93 0.4 WSW 7 17 4 9 1023.2 1023.2 0.2
 
Date/Time
WST
Temp
°C
App
Temp
°C
Dew
Point
°C
Rel
Hum
%
Delta-T
°C
Wind Press
QNH
hPa
Press
MSL
hPa
Rain since
9am
mm
Dir  Spd
km/h
Gust
km/h
Spd
kts
Gust
kts
01/11:30pm 6.4 5.4 5.5 94 0.4 CALM 0 0 0 0 1023.5 1023.5 0.2
01/11:00pm 5.5 3.5 4.6 94 0.4 WSW 4 7 2 4 1023.7 1023.7 0.2
01/10:30pm 6.1 2.9 5.2 94 0.4 WSW 11 13 6 7 1023.8 1023.8 0.2
01/10:00pm 5.7 2.8 4.5 92 0.5 SE 9 11 5 6 1023.9 1023.9 0.2
01/09:30pm 6.6 4.2 5.2 91 0.6 SE 7 11 4 6 1023.9 1023.9 0.2
01/09:00pm 8.6 6.6 6.2 85 1.1 SE 6 6 3 3 1023.9 1023.9 0.2
01/08:30pm 7.2 4.8 5.3 88 0.9 SE 7 9 4 5 1024.1 1024.0 0.2
01/08:00pm 7.7 5.3 5.3 85 1.1 SE 7 9 4 5 1023.8 1023.8 0.2
01/07:30pm 10.4 8.2 6.0 74 2.1 SE 7 9 4 5 1023.7 1023.7 0.2
01/07:00pm 11.5 8.8 5.4 66 2.8 SE 9 13 5 7 1023.5 1023.5 0.2
01/06:30pm 12.0 9.3 5.4 64 3.1 SSE 9 11 5 6 1023.4 1023.4 0.2
01/06:00pm 12.5 9.9 5.9 64 3.1 SSE 9 13 5 7 1023.4 1023.4 0.2
01/05:30pm 13.6 10.6 6.2 61 3.6 S 11 13 6 7 1023.3 1023.3 0.2
01/05:00pm 14.6 11.2 5.7 55 4.3 S 13 17 7 9 1023.3 1023.3 0.2
01/04:30pm 14.9 11.9 6.2 56 4.2 S 11 13 6 7 1023.5 1023.5 0.2
01/04:00pm 15.8 12.7 5.7 51 4.9 WSW 11 17 6 9 1023.4 1023.4 0.2
01/03:30pm 16.0 12.8 5.0 48 5.3 SW 11 17 6 9 1023.4 1023.4 0.2
01/03:00pm 16.5 12.4 6.3 51 5.0 WSW 17 22 9 12 1023.5 1023.5 0.2
01/02:30pm 15.6 11.7 5.5 51 4.9 SSW 15 24 8 13 1023.5 1023.5 0.2
01/02:00pm 15.7 10.9 5.6 51 4.9 SSW 20 28 11 15 1023.6 1023.6 0.2
01/01:30pm 16.0 11.8 5.6 50 5.0 WSW 17 22 9 12 1023.7 1023.7 0.2
01/01:00pm 16.2 13.5 5.8 50 5.0 SW 9 24 5 13 1024.2 1024.1 0.2
01/12:30pm 17.1 14.6 6.6 50 5.2 W 9 17 5 9 1024.4 1024.3 0.2
01/12:00pm 16.6 14.1 6.4 51 5.0 SW 9 15 5 8 1024.8 1024.7 0.2
01/11:30am 15.8 13.2 7.6 58 4.1 SSE 11 20 6 11 1025.3 1025.2 0.2
01/11:00am 14.3 10.9 5.7 56 4.1 S 13 24 7 13 1025.4 1025.3 0.0
01/10:30am 13.8 10.1 6.2 60 3.7 SSE 15 22 8 12 1025.6 1025.6 0.0
01/10:00am 14.4 11.6 8.6 68 2.9 SE 13 17 7 9 1025.7 1025.7 0.0
01/09:30am 13.6 10.8 8.7 72 2.5 SE 13 20 7 11 1025.8 1025.8 0.0
01/09:00am 12.7 10.6 9.7 82 1.5 SSE 11 17 6 9 1025.9 1025.9 0.6
01/08:30am 11.3 9.2 9.6 89 0.9 S 11 15 6 8 1025.8 1025.8 0.6
01/08:00am 10.8 8.6 9.2 90 0.8 S 11 17 6 9 1025.6 1025.6 0.6
01/07:30am 10.5 9.0 9.1 91 0.7 S 7 11 4 6 1025.1 1025.2 0.6
01/07:00am 10.1 8.2 8.9 92 0.6 S 9 11 5 6 1024.8 1024.9 0.6
01/06:30am 10.0 8.6 8.9 93 0.5 S 6 7 3 4 1024.3 1024.4 0.6
01/06:00am 10.0 8.0 8.8 92 0.6 S 9 13 5 7 1024.1 1024.2 0.6
01/05:30am 10.1 8.5 8.9 92 0.6 SE 7 9 4 5 1023.6 1023.8 0.6
01/05:00am 10.1 8.5 8.7 91 0.7 SE 7 9 4 5 1023.2 1023.4 0.6
01/04:30am 10.1 7.7 8.7 91 0.7 SE 11 15 6 8 1022.9 1023.1 0.6
01/04:00am 10.4 8.0 8.8 90 0.8 SE 11 17 6 9 1022.8 1023.0 0.6
01/03:30am 10.4 7.3 9.0 91 0.7 SE 15 20 8 11 1022.7 1022.8 0.6
01/03:00am 11.3 7.6 10.0 92 0.7 SE 20 30 11 16 1022.9 1023.1 0.6
01/02:58am 11.3 7.5 9.9 91 0.7 SE 20 30 11 16 1022.9 1023.1 0.6
01/02:30am 11.4 8.7 10.3 93 0.6 SSE 15 24 8 13 1022.9 1023.1 0.6
01/02:09am 11.5 7.5 10.4 93 0.6 SSE 22 32 12 17 1022.8 1023.0 0.6
01/02:00am 11.6 8.2 10.5 93 0.6 SSE 19 26 10 14 1022.8 1023.0 0.6
01/01:45am 11.6 8.3 10.8 95 0.4 SSE 19 24 10 13 1022.8 1023.0 0.6
01/01:37am 11.6 7.7 10.8 95 0.4 SSE 22 39 12 21 1022.7 1022.8 0.6
01/01:30am 11.7 7.8 10.9 95 0.4 SSW 22 39 12 21 1022.7 1022.8 0.6
01/01:27am 12.0 9.2 11.4 96 0.3 WSW 17 37 9 20 1022.6 1022.7 0.6
01/01:00am 12.3 11.2 11.8 97 0.3 WNW 9 11 5 6 1022.3 1022.4 0.2
01/12:50am 12.0 11.7 11.5 97 0.3 WNW 4 9 2 5 1022.3 1022.4 0.2
01/12:48am 11.9 12.0 11.4 97 0.3 WNW 2 9 1 5 1022.2 1022.3 0.2
01/12:31am 11.2 11.4 10.6 96 0.3 CALM 0 0 0 0 1022.1 1022.2 0.2
01/12:30am 11.2 11.4 10.6 96 0.3 CALM 0 0 0 0 1022.1 1022.2 0.2
01/12:02am 10.9 10.7 10.3 96 0.3 WNW 2 6 1 3 1022.0 1022.1 0.2
01/12:00am 10.9 10.3 10.3 96 0.3 WNW 4 6 2 3 1022.0 1022.1 0.2
 
Date/Time
WST
Temp
°C
App
Temp
°C
Dew
Point
°C
Rel
Hum
%
Delta-T
°C
Wind Press
QNH
hPa
Press
MSL
hPa
Rain since
9am
mm
Dir  Spd
km/h
Gust
km/h
Spd
kts
Gust
kts
31/11:30pm 11.5 10.5 10.9 96 0.3 WNW 7 7 4 4 1022.1 1022.2 0.2
31/11:00pm 11.6 10.5 10.8 95 0.4 WNW 7 9 4 5 1022.0 1022.1 0.2
31/10:30pm 11.7 12.0 10.9 95 0.4 CALM 0 0 0 0 1022.2 1022.3 0.2
31/10:00pm 11.6 10.5 10.7 94 0.5 WNW 7 9 4 5 1022.1 1022.2 0.2
31/09:30pm 12.6 10.8 11.0 90 0.8 WNW 11 13 6 7 1022.1 1022.2 0.2
31/09:00pm 14.4 12.2 12.1 86 1.3 WSW 15 20 8 11 1022.3 1022.4 0.2
31/08:30pm 13.0 11.7 11.2 89 1.0 W 9 11 5 6 1022.3 1022.4 0.2
31/08:00pm 12.8 10.6 10.9 88 1.0 W 13 15 7 8 1021.9 1022.0 0.2
31/07:30pm 12.6 10.3 10.3 86 1.2 W 13 15 7 8 1021.3 1021.4 0.2
31/07:00pm 14.2 11.4 11.2 82 1.6 W 17 19 9 10 1020.9 1021.0 0.2
31/06:30pm 14.9 13.2 12.4 85 1.4 W 13 17 7 9 1020.5 1020.6 0.2
31/06:00pm 16.8 14.4 12.5 76 2.4 W 17 22 9 12 1020.2 1020.3 0.2
31/05:30pm 18.4 14.7 12.8 70 3.2 W 24 30 13 16 1019.7 1019.8 0.2
31/05:00pm 18.9 14.7 13.5 71 3.1 W 28 39 15 21 1019.6 1019.7 0.2
31/04:30pm 19.7 15.1 13.4 67 3.6 W 30 41 16 22 1019.0 1019.2 0.2
31/04:00pm 20.6 16.9 12.6 60 4.6 WNW 24 32 13 17 1018.8 1018.9 0.2
31/03:30pm 21.5 17.0 11.5 53 5.6 WNW 26 33 14 18 1018.7 1018.8 0.2
31/03:00pm 21.3 16.7 12.2 56 5.2 W 28 35 15 19 1018.7 1018.8 0.2
31/02:30pm 21.7 18.6 13.3 59 4.9 W 22 30 12 16 1018.6 1018.7 0.2
31/02:00pm 20.9 16.8 12.6 59 4.7 W 26 35 14 19 1018.8 1018.9 0.2
31/01:30pm 21.0 17.2 12.4 58 4.9 WNW 24 35 13 19 1018.7 1018.8 0.2
31/01:00pm 21.7 18.7 13.6 60 4.7 W 22 30 12 16 1018.7 1018.8 0.2
31/12:30pm 20.9 18.5 14.3 66 3.9 WNW 20 28 11 15 1019.0 1019.2 0.2
31/12:00pm 21.5 19.3 14.9 66 3.9 WNW 20 30 11 16 1019.3 1019.4 0.2
31/11:30am 20.3 17.5 14.4 69 3.5 NW 22 30 12 16 1019.9 1020.0 0.2
31/11:00am 19.2 16.9 14.7 75 2.6 W 20 26 11 14 1020.1 1020.2 0.0
31/10:52am 18.4 16.2 14.3 77 2.4 W 19 24 10 13 1020.2 1020.3 0.0
31/10:30am 17.2 16.2 14.5 84 1.6 WNW 13 20 7 11 1020.3 1020.4 0.0
31/10:00am 15.8 15.1 15.3 97 0.3 WNW 13 17 7 9 1020.4 1020.5 0.0
31/09:30am 13.9 13.3 13.6 98 0.2 WNW 9 13 5 7 1020.3 1020.4 0.0
31/09:26am 13.7 13.1 13.4 98 0.2 WNW 9 13 5 7 1020.3 1020.4 0.0
31/09:00am 12.7 11.0 12.4 98 0.2 W 13 15 7 8 1020.3 1020.4 0.0
31/08:58am 12.6 10.9 12.3 98 0.2 W 13 15 7 8 1020.4 1020.5 0.0
31/08:30am 11.8 8.5 11.5 98 0.2 W 20 26 11 14 1020.3 1020.4 0.0
31/08:00am 11.1 10.2 10.8 98 0.2 ENE 6 9 3 5 1019.8 1019.9 0.0
31/07:30am 10.2 9.1 9.9 98 0.2 ENE 6 9 3 5 1019.7 1019.8 0.0
31/07:00am 9.6 9.5 9.3 98 0.1 CALM 0 0 0 0 1019.1 1019.3 0.0
31/06:30am 9.8 9.7 9.5 98 0.2 CALM 0 0 0 0 1018.9 1019.1 0.0
31/06:00am 10.3 10.4 10.0 98 0.2 CALM 0 0 0 0 1018.6 1018.7 0.0
31/05:30am 10.3 10.4 10.0 98 0.2 CALM 0 0 0 0 1018.5 1018.6 0.0
31/05:00am 10.3 10.4 10.0 98 0.2 CALM 0 0 0 0 1018.4 1018.5 0.0
31/04:30am 10.2 10.2 9.9 98 0.2 CALM 0 0 0 0 1018.5 1018.6 0.0
31/04:00am 10.2 10.2 9.9 98 0.2 CALM 0 0 0 0 1018.6 1018.7 0.0
31/03:53am 10.1 10.1 9.8 98 0.2 CALM 0 0 0 0 1018.6 1018.7 0.0
31/03:41am 10.0 10.0 9.7 98 0.2 CALM 0 0 0 0 1018.6 1018.7 0.0
31/03:30am 9.1 8.8 8.6 97 0.2 CALM 0 0 0 0 1018.7 1018.8 0.0
31/03:00am 9.1 8.8 8.6 97 0.2 CALM 0 0 0 0 1018.4 1018.5 0.0
31/02:30am 9.2 8.9 8.7 97 0.2 CALM 0 0 0 0 1018.6 1018.7 0.0
31/02:00am 9.5 9.3 9.0 97 0.2 CALM 0 0 0 0 1018.7 1018.8 0.0
31/01:31am 10.1 10.0 9.6 97 0.3 CALM 0 0 0 0 1018.8 1018.9 0.0
31/01:30am 10.1 10.0 9.6 97 0.3 CALM 0 0 0 0 1018.8 1018.9 0.0
31/01:28am 10.0 9.9 9.5 97 0.3 CALM 0 0 0 0 1018.8 1018.9 0.0
31/01:07am 9.6 9.4 9.0 96 0.3 CALM 0 0 0 0 1019.0 1019.2 0.0
31/01:03am 9.9 9.8 9.3 96 0.3 CALM 0 0 0 0 1019.0 1019.2 0.0
31/01:00am 10.0 9.9 9.5 97 0.3 CALM 0 0 0 0 1019.1 1019.3 0.0
31/12:50am 10.1 10.0 9.6 97 0.3 CALM 0 0 0 0 1019.1 1019.3 0.0
31/12:36am 9.7 9.5 9.1 96 0.3 CALM 0 0 0 0 1019.1 1019.3 0.0
31/12:30am 9.8 9.6 9.2 96 0.3 CALM 0 0 0 0 1019.1 1019.3 0.0
31/12:25am 10.0 9.9 9.4 96 0.3 CALM 0 0 0 0 1019.1 1019.3 0.0
31/12:06am 10.5 10.5 9.9 96 0.3 CALM 0 0 0 0 1019.3 1019.4 0.0
31/12:03am 10.8 10.9 10.2 96 0.3 CALM 0 0 0 0 1019.1 1019.3 0.0
31/12:00am 10.9 11.0 10.3 96 0.3 CALM 0 0 0 0 1019.1 1019.3 0.0
 
Date/Time
WST
Temp
°C
App
Temp
°C
Dew
Point
°C
Rel
Hum
%
Delta-T
°C
Wind Press
QNH
hPa
Press
MSL
hPa
Rain since
9am
mm
Dir  Spd
km/h
Gust
km/h
Spd
kts
Gust
kts
30/11:55pm 11.0 11.1 10.2 95 0.4 CALM 0 0 0 0 1019.3 1019.4 0.0
30/11:53pm 11.1 11.2 10.3 95 0.4 CALM 0 0 0 0 1019.3 1019.4 0.0
30/11:49pm 11.3 11.5 10.7 96 0.3 CALM 0 0 0 0 1019.3 1019.4 0.0
30/11:30pm 11.6 11.9 11.0 96 0.3 CALM 0 0 0 0 1019.4 1019.5 0.0
30/11:25pm 11.8 12.2 11.2 96 0.3 CALM 0 0 0 0 1019.4 1019.5 0.0
30/11:00pm 12.1 12.6 11.5 96 0.3 CALM 0 0 0 0 1019.5 1019.6 0.0
30/10:30pm 12.1 12.5 11.3 95 0.4 CALM 0 0 0 0 1019.8 1019.9 0.0
30/10:00pm 12.1 11.3 11.2 94 0.5 ENE 6 7 3 4 1020.0 1020.1 0.0
30/09:30pm 12.8 11.7 12.0 95 0.4 ENE 9 11 5 6 1019.9 1020.0 0.0
30/09:00pm 12.8 12.1 11.9 94 0.5 E 7 9 4 5 1020.0 1020.1 0.0
30/08:30pm 14.1 13.8 13.3 95 0.4 E 7 7 4 4 1019.9 1020.0 0.0
30/08:00pm 14.7 15.8 13.6 93 0.6 CALM 0 0 0 0 1019.8 1019.9 0.0
30/07:30pm 15.6 16.9 14.1 91 0.9 CALM 0 4 0 2 1019.7 1019.8 0.0
30/07:00pm 16.4 16.7 14.6 89 1.0 E 6 7 3 4 1019.5 1019.6 0.0
30/06:30pm 18.3 18.7 15.4 83 1.7 E 7 7 4 4 1019.3 1019.4 0.0
30/06:00pm 20.2 20.2 15.2 73 3.0 E 9 9 5 5 1018.9 1019.1 0.0
30/05:30pm 21.4 21.6 15.7 70 3.4 NE 9 9 5 5 1018.7 1018.8 0.0
30/05:00pm 22.3 22.0 15.4 65 4.1 NE 11 17 6 9 1018.9 1019.1 0.0

Other formats

Comma delimited format used in spreadsheet applications
http://www.bom.gov.au/fwo/IDW60801/IDW60801.95625.axf

JavaScript Object Notation format (JSON) in row-major order
http://www.bom.gov.au/fwo/IDW60801/IDW60801.95625.json

Data quality

Most of these data are generated automatically and are frequently updated. Quality checks on data are not normally performed. It is possible for incorrect values to appear. Refer to information at About Latest Weather Observations and please check the disclaimer before using these data.